»·PEaware :: NWA576 KDFW-KSNA

NWA576 :: KDFW-KSNA

FLIGHT INFORMATION

Flight Status: Arrived
Operator:
Northwest Airlines
More flights by this operator :: More flights under this callsign
Pilot: Anonymous 8274 (8274)
Aircraft: MCDONNELL-DOUGLAS MD-88
(MD88)
More flights by this aircraft type
Origin: KDFW Dallas-Ft Worth Intl
United States
Destination: KSNA John Wayne-Orange Co
United States
More flights between these airports :: More routes between these airports
Route: +WSTEX2 CIKAN WIBAN UNNOS CME J65 TCS J108 SJN J74 NABOB HIMDU KEFFR4
File this flight plan on PilotEdge
Remarks:
Altitude:
(Current/Filed)
28,000ft
Speed:
(Current/Filed)
440kts
Departed: 03-Jun-17 06:18 PM
Arrived: 03-Jun-17 09:10 PM
Distance/Time
Traveled:
1044nm/2:52
Distance/Time
To Go:
Arrived

Flight Plot

Page will automatically refresh every two minutes.

Flight plan parsing failed; only flown route is shown


Map Options




Map Legend


Flown Route
Filed Route
Departure Airport
Arrival Airport
Navaid (VOR, NDB)
Fix

Horizontal Profiles

Position Reports

Time Latitude Longitude Heading Altitude Ground
Speed
03-Jun-17 18:11 32.907185 -97.036352 222 587ft 0kts
03-Jun-17 18:12 32.907185 -97.036352 222 587ft 0kts
03-Jun-17 18:13 32.907185 -97.036352 222 587ft 0kts
03-Jun-17 18:14 32.907219 -97.036314 222 587ft 1kts
03-Jun-17 18:15 32.908207 -97.035260 218 584ft 6kts
03-Jun-17 18:16 32.909082 -97.035185 92 583ft 0kts
03-Jun-17 18:17 32.911279 -97.031795 359 575ft 30kts
03-Jun-17 18:18 32.914266 -97.029890 178 568ft 12kts
03-Jun-17 18:19 32.913506 -97.029877 179 570ft 0kts
03-Jun-17 18:20 32.898160 -97.029963 180 582ft 148kts
03-Jun-17 18:21 32.851090 -97.031844 188 2455ft 153kts
03-Jun-17 18:22 32.810303 -97.038565 187 3189ft 218kts
03-Jun-17 18:23 32.742953 -97.049155 187 5100ft 256kts
03-Jun-17 18:24 32.694970 -97.100443 261 7129ft 277kts
03-Jun-17 18:25 32.689415 -97.192168 267 9491ft 284kts
03-Jun-17 18:26 32.687566 -97.294122 267 10278ft 345kts
03-Jun-17 18:27 32.684968 -97.408763 267 12483ft 353kts
03-Jun-17 18:28 32.682346 -97.526645 267 14553ft 362kts
03-Jun-17 18:29 32.679780 -97.646857 267 16468ft 369kts
03-Jun-17 18:30 32.675443 -97.769454 263 18247ft 377kts
03-Jun-17 18:31 32.665840 -97.887091 263 19821ft 384kts
03-Jun-17 18:32 32.655685 -98.014137 263 21376ft 392kts
03-Jun-17 18:33 32.645653 -98.143511 263 22834ft 400kts
03-Jun-17 18:34 32.635220 -98.275598 262 24215ft 407kts
03-Jun-17 18:35 32.623328 -98.410155 262 25503ft 414kts
03-Jun-17 18:36 32.611280 -98.546946 262 26685ft 421kts
03-Jun-17 18:37 32.599183 -98.685984 262 27742ft 428kts
03-Jun-17 18:38 32.587188 -98.825561 262 27964ft 428kts
03-Jun-17 18:39 32.575330 -98.965421 263 27963ft 428kts
03-Jun-17 18:40 32.563631 -99.105229 262 27963ft 428kts
03-Jun-17 18:41 32.552427 -99.244662 262 27989ft 428kts
03-Jun-17 18:42 32.541913 -99.385103 264 27993ft 428kts
03-Jun-17 18:43 32.532740 -99.525237 263 27992ft 428kts
03-Jun-17 18:44 32.523566 -99.665779 264 27991ft 428kts
03-Jun-17 18:45 32.514588 -99.805643 264 27990ft 428kts
03-Jun-17 18:46 32.505747 -99.945780 264 27990ft 428kts
03-Jun-17 18:47 32.497046 -100.086162 264 27989ft 428kts
03-Jun-17 18:48 32.488899 -100.224952 264 28015ft 427kts
03-Jun-17 18:49 32.481700 -100.365119 265 28048ft 428kts
03-Jun-17 18:50 32.475960 -100.505574 265 28046ft 428kts
03-Jun-17 18:51 32.470028 -100.645891 265 28046ft 428kts
03-Jun-17 18:52 32.464267 -100.785761 265 28045ft 427kts
03-Jun-17 18:53 32.458659 -100.925688 265 28044ft 428kts
03-Jun-17 18:54 32.453175 -101.066355 266 28043ft 428kts
03-Jun-17 18:55 32.448160 -101.206260 265 28051ft 428kts
03-Jun-17 18:56 32.443049 -101.345993 265 28050ft 427kts
03-Jun-17 18:57 32.438071 -101.485749 266 28050ft 427kts
03-Jun-17 18:58 32.433238 -101.625659 266 28059ft 427kts
03-Jun-17 18:59 32.428696 -101.761459 266 28075ft 427kts
03-Jun-17 19:00 32.424201 -101.900337 266 28074ft 427kts
03-Jun-17 19:01 32.419818 -102.040549 266 28073ft 427kts
03-Jun-17 19:02 32.415844 -102.180627 266 28078ft 427kts
03-Jun-17 19:03 32.411816 -102.321173 266 28078ft 427kts
03-Jun-17 19:04 32.407904 -102.461297 266 28077ft 427kts
03-Jun-17 19:05 32.404133 -102.602042 266 28078ft 433kts
03-Jun-17 19:06 32.401309 -102.744341 273 28065ft 434kts
03-Jun-17 19:07 32.450707 -102.874624 297 28077ft 442kts
03-Jun-17 19:08 32.509543 -102.999609 296 28074ft 435kts
03-Jun-17 19:09 32.567665 -103.123604 296 28103ft 436kts
03-Jun-17 19:10 32.626237 -103.247946 296 28102ft 435kts
03-Jun-17 19:11 32.685196 -103.373403 296 28102ft 435kts
03-Jun-17 19:12 32.744138 -103.498569 296 28101ft 435kts
03-Jun-17 19:13 32.802744 -103.622766 296 28101ft 435kts
03-Jun-17 19:14 32.861617 -103.747270 296 28100ft 435kts
03-Jun-17 19:15 32.920503 -103.871544 296 28074ft 436kts
03-Jun-17 19:16 32.983797 -103.993487 301 28072ft 438kts
03-Jun-17 19:17 33.051005 -104.113178 300 28075ft 438kts
03-Jun-17 19:18 33.118672 -104.233174 300 28077ft 438kts
03-Jun-17 19:19 33.186119 -104.353188 300 28077ft 438kts
03-Jun-17 19:20 33.253822 -104.473472 300 28076ft 438kts
03-Jun-17 19:21 33.321105 -104.593715 296 28067ft 436kts
03-Jun-17 19:22 33.336373 -104.732128 266 28077ft 427kts
03-Jun-17 19:23 33.331646 -104.871809 266 28074ft 427kts
03-Jun-17 19:24 33.327431 -105.012563 266 28073ft 427kts
03-Jun-17 19:25 33.323649 -105.150463 266 28078ft 427kts
03-Jun-17 19:26 33.319849 -105.292989 265 28174ft 433kts
03-Jun-17 19:27 33.316098 -105.434394 265 28291ft 430kts
03-Jun-17 19:28 33.312550 -105.574300 266 28292ft 430kts
03-Jun-17 19:30 33.305879 -105.856189 266 28291ft 430kts
03-Jun-17 19:31 33.302765 -105.997976 266 28290ft 430kts
03-Jun-17 19:32 33.300795 -106.091570 266 28290ft 430kts
03-Jun-17 19:35 33.293066 -106.516181 266 28076ft 432kts
03-Jun-17 19:41 33.331113 -107.360240 304 28111ft 447kts
03-Jun-17 19:42 33.404638 -107.479287 302 28104ft 446kts
03-Jun-17 19:43 33.477078 -107.598778 302 28104ft 446kts
03-Jun-17 19:44 33.549787 -107.718576 302 28104ft 446kts
03-Jun-17 19:45 33.622280 -107.837841 302 28099ft 446kts
03-Jun-17 19:46 33.694947 -107.957209 302 28098ft 446kts
03-Jun-17 19:47 33.768230 -108.077403 303 28098ft 446kts
03-Jun-17 19:48 33.840582 -108.195170 301 28126ft 436kts
03-Jun-17 19:49 33.912465 -108.312764 301 28236ft 437kts
03-Jun-17 19:50 33.984324 -108.430088 301 28238ft 437kts
03-Jun-17 19:51 34.056348 -108.547500 301 28237ft 437kts
03-Jun-17 19:52 34.128679 -108.665230 301 28237ft 437kts
03-Jun-17 19:53 34.200815 -108.782467 301 28236ft 437kts
03-Jun-17 19:54 34.273439 -108.900320 301 28106ft 439kts
03-Jun-17 19:55 34.345626 -109.017275 302 28100ft 439kts
03-Jun-17 19:56 34.414255 -109.138259 286 28109ft 429kts
03-Jun-17 19:57 34.419395 -109.277273 263 28108ft 418kts
03-Jun-17 19:58 34.412673 -109.417251 264 28105ft 418kts
03-Jun-17 19:59 34.406399 -109.557724 264 28104ft 418kts
03-Jun-17 20:00 34.400303 -109.698078 264 28103ft 418kts
03-Jun-17 20:01 34.394352 -109.838667 264 28138ft 418kts
03-Jun-17 20:02 34.388586 -109.978719 264 28182ft 418kts
03-Jun-17 20:03 34.383058 -110.117511 264 28186ft 418kts
03-Jun-17 20:04 34.377910 -110.257246 264 28187ft 418kts
03-Jun-17 20:05 34.372618 -110.397583 264 28186ft 418kts
03-Jun-17 20:06 34.366702 -110.537665 264 28185ft 418kts
03-Jun-17 20:07 34.359923 -110.677902 264 28184ft 418kts
03-Jun-17 20:08 34.353182 -110.817984 263 28177ft 418kts
03-Jun-17 20:09 34.345758 -110.958475 264 28127ft 419kts
03-Jun-17 20:10 34.338526 -111.098621 264 28127ft 419kts
03-Jun-17 20:11 34.331759 -111.238994 263 28133ft 419kts
03-Jun-17 20:12 34.330198 -111.379849 269 28132ft 421kts
03-Jun-17 20:13 34.333098 -111.520812 268 28131ft 421kts
03-Jun-17 20:14 34.335606 -111.662455 268 28130ft 421kts
03-Jun-17 20:15 34.338257 -111.803826 268 28129ft 421kts
03-Jun-17 20:16 34.341070 -111.945204 268 28128ft 421kts
03-Jun-17 20:17 34.344041 -112.086372 268 28100ft 421kts
03-Jun-17 20:18 34.347472 -112.227302 268 28106ft 421kts
03-Jun-17 20:19 34.350778 -112.369156 267 28098ft 423kts
03-Jun-17 20:20 34.354261 -112.510309 268 28105ft 421kts
03-Jun-17 20:21 34.357889 -112.651911 268 28103ft 421kts
03-Jun-17 20:22 34.361674 -112.793200 268 28102ft 421kts
03-Jun-17 20:23 34.365628 -112.934746 268 28101ft 421kts
03-Jun-17 20:24 34.369733 -113.075872 269 28100ft 421kts
03-Jun-17 20:25 34.374285 -113.216547 268 28107ft 421kts
03-Jun-17 20:26 34.378746 -113.357960 268 28106ft 421kts
03-Jun-17 20:27 34.383341 -113.499199 269 27913ft 422kts
03-Jun-17 20:28 34.388118 -113.641076 269 27780ft 423kts
03-Jun-17 20:29 34.393079 -113.783377 269 27777ft 423kts
03-Jun-17 20:30 34.398186 -113.925401 269 27777ft 424kts
03-Jun-17 20:31 34.390968 -114.066296 254 27777ft 418kts
03-Jun-17 20:32 34.361136 -114.200009 253 27782ft 418kts
03-Jun-17 20:33 34.331201 -114.335693 253 27781ft 418kts
03-Jun-17 20:34 34.301444 -114.471175 253 27780ft 418kts
03-Jun-17 20:35 34.272473 -114.603734 253 27779ft 418kts
03-Jun-17 20:36 34.242560 -114.739205 252 27778ft 418kts
03-Jun-17 20:37 34.211671 -114.874153 253 27776ft 418kts
03-Jun-17 20:38 34.180891 -115.009019 253 27804ft 420kts
03-Jun-17 20:39 34.151890 -115.137499 253 27808ft 417kts
03-Jun-17 20:40 34.121772 -115.271570 252 27808ft 418kts
03-Jun-17 20:41 34.091491 -115.406248 253 27806ft 419kts
03-Jun-17 20:42 34.061372 -115.540845 253 27965ft 417kts
03-Jun-17 20:43 34.021868 -115.671705 246 27966ft 416kts
03-Jun-17 20:44 33.978425 -115.800646 246 27965ft 416kts
03-Jun-17 20:45 33.935344 -115.929069 247 27964ft 416kts
03-Jun-17 20:46 33.892687 -116.056696 247 26361ft 404kts
03-Jun-17 20:47 33.856831 -116.167271 251 24425ft 385kts
03-Jun-17 20:48 33.856667 -116.294060 273 22405ft 383kts
03-Jun-17 20:49 33.868904 -116.418021 273 20423ft 374kts
03-Jun-17 20:50 33.875103 -116.536672 270 18509ft 367kts
03-Jun-17 20:51 33.880732 -116.657448 270 16554ft 358kts
03-Jun-17 20:52 33.886006 -116.772794 271 14850ft 341kts
03-Jun-17 20:53 33.885963 -116.884496 259 13961ft 314kts
03-Jun-17 20:54 33.874223 -116.976382 259 13809ft 260kts
03-Jun-17 20:55 33.866514 -117.059834 262 12813ft 255kts
03-Jun-17 20:56 33.861131 -117.121885 262 12069ft 254kts
03-Jun-17 20:57 33.853637 -117.205098 262 11083ft 251kts
03-Jun-17 20:58 33.846106 -117.286679 262 10099ft 248kts
03-Jun-17 20:59 33.838395 -117.364995 256 9049ft 221kts
03-Jun-17 21:00 33.821254 -117.434869 244 8063ft 218kts
03-Jun-17 21:01 33.802699 -117.502953 262 7960ft 214kts
03-Jun-17 21:02 33.796585 -117.565695 263 6549ft 196kts
03-Jun-17 21:03 33.805993 -117.625174 301 5995ft 193kts
03-Jun-17 21:04 33.832801 -117.673780 301 4806ft 170kts
03-Jun-17 21:05 33.857327 -117.719386 301 3090ft 163kts
03-Jun-17 21:06 33.856664 -117.764593 224 2180ft 171kts
03-Jun-17 21:07 33.811204 -117.778900 191 2973ft 163kts
03-Jun-17 21:08 33.774690 -117.802004 221 2519ft 148kts
03-Jun-17 21:09 33.739638 -117.828259 206 1494ft 144kts
03-Jun-17 21:10 33.704537 -117.850548 207 592ft 146kts
03-Jun-17 21:11 33.671160 -117.871702 207 62ft 79kts
03-Jun-17 21:12 33.667650 -117.872429 50 62ft 15kts
03-Jun-17 21:13 33.670306 -117.869667 40 62ft 0kts
03-Jun-17 21:14 33.675212 -117.865745 27 62ft 26kts
03-Jun-17 21:15 33.678837 -117.863367 74 62ft 5kts
03-Jun-17 21:16 33.678712 -117.862803 101 62ft 0kts
03-Jun-17 21:17 33.678712 -117.862803 101 62ft 0kts
03-Jun-17 21:18 33.678712 -117.862803 101 62ft 0kts

Navigation Log

Ident Type
Flight plan parsing failed, navigation log unavailable